sensor_id;sensor_type;location;lat;lon;timestamp;P1;durP1;ratioP1;P2;durP2;ratioP2
34212;SDS011;20477;51.390;8.102;2023-08-31T00:00:09;17.83;;;10.80;;
34212;SDS011;20477;51.390;8.102;2023-08-31T00:02:39;16.75;;;10.48;;
34212;SDS011;20477;51.390;8.102;2023-08-31T00:05:08;15.23;;;10.48;;
34212;SDS011;20477;51.390;8.102;2023-08-31T00:07:37;16.23;;;9.52;;
34212;SDS011;20477;51.390;8.102;2023-08-31T00:10:06;13.98;;;9.38;;
34212;SDS011;20477;51.390;8.102;2023-08-31T00:12:38;16.13;;;9.57;;
34212;SDS011;20477;51.390;8.102;2023-08-31T00:15:07;15.90;;;10.05;;
34212;SDS011;20477;51.390;8.102;2023-08-31T00:17:37;15.30;;;10.15;;
34212;SDS011;20477;51.390;8.102;2023-08-31T00:20:06;17.77;;;11.55;;
34212;SDS011;20477;51.390;8.102;2023-08-31T00:22:38;22.65;;;11.88;;
34212;SDS011;20477;51.390;8.102;2023-08-31T00:25:07;16.88;;;13.10;;
34212;SDS011;20477;51.390;8.102;2023-08-31T00:27:35;17.85;;;12.30;;
34212;SDS011;20477;51.390;8.102;2023-08-31T00:30:04;16.60;;;11.50;;
34212;SDS011;20477;51.390;8.102;2023-08-31T00:32:37;17.48;;;11.95;;
34212;SDS011;20477;51.390;8.102;2023-08-31T00:35:06;18.65;;;12.55;;
34212;SDS011;20477;51.390;8.102;2023-08-31T00:37:35;23.52;;;12.93;;
34212;SDS011;20477;51.390;8.102;2023-08-31T00:40:05;19.77;;;12.02;;
34212;SDS011;20477;51.390;8.102;2023-08-31T00:42:35;24.60;;;12.80;;
34212;SDS011;20477;51.390;8.102;2023-08-31T00:45:04;22.55;;;13.80;;
34212;SDS011;20477;51.390;8.102;2023-08-31T00:47:34;22.52;;;12.75;;
34212;SDS011;20477;51.390;8.102;2023-08-31T00:50:04;20.80;;;12.90;;
34212;SDS011;20477;51.390;8.102;2023-08-31T00:52:35;20.48;;;13.82;;
34212;SDS011;20477;51.390;8.102;2023-08-31T00:55:04;22.23;;;13.85;;
34212;SDS011;20477;51.390;8.102;2023-08-31T00:57:34;21.55;;;13.57;;
34212;SDS011;20477;51.390;8.102;2023-08-31T01:00:03;21.25;;;14.48;;
34212;SDS011;20477;51.390;8.102;2023-08-31T01:02:37;24.42;;;13.75;;
34212;SDS011;20477;51.390;8.102;2023-08-31T01:05:23;28.63;;;13.65;;
34212;SDS011;20477;51.390;8.102;2023-08-31T01:08:03;23.02;;;12.75;;
34212;SDS011;20477;51.390;8.102;2023-08-31T01:10:48;24.27;;;13.52;;
34212;SDS011;20477;51.390;8.102;2023-08-31T01:13:29;18.70;;;12.32;;
34212;SDS011;20477;51.390;8.102;2023-08-31T01:16:00;19.08;;;12.18;;
34212;SDS011;20477;51.390;8.102;2023-08-31T01:18:34;19.00;;;12.60;;
34212;SDS011;20477;51.390;8.102;2023-08-31T01:21:11;20.85;;;12.50;;
34212;SDS011;20477;51.390;8.102;2023-08-31T01:23:51;21.10;;;12.85;;
34212;SDS011;20477;51.390;8.102;2023-08-31T01:26:20;22.70;;;12.20;;
34212;SDS011;20477;51.390;8.102;2023-08-31T01:28:51;19.77;;;11.70;;
34212;SDS011;20477;51.390;8.102;2023-08-31T01:31:20;17.90;;;11.75;;
34212;SDS011;20477;51.390;8.102;2023-08-31T01:33:48;26.52;;;10.80;;
34212;SDS011;20477;51.390;8.102;2023-08-31T01:36:18;18.02;;;10.60;;
34212;SDS011;20477;51.390;8.102;2023-08-31T01:38:57;17.35;;;9.95;;
34212;SDS011;20477;51.390;8.102;2023-08-31T01:41:33;20.42;;;10.73;;
34212;SDS011;20477;51.390;8.102;2023-08-31T01:44:04;15.55;;;10.25;;
34212;SDS011;20477;51.390;8.102;2023-08-31T01:46:37;28.52;;;10.07;;
34212;SDS011;20477;51.390;8.102;2023-08-31T01:49:06;15.10;;;9.07;;
34212;SDS011;20477;51.390;8.102;2023-08-31T01:51:35;15.55;;;9.02;;
34212;SDS011;20477;51.390;8.102;2023-08-31T01:54:04;13.38;;;8.70;;
34212;SDS011;20477;51.390;8.102;2023-08-31T01:56:33;16.88;;;9.25;;
34212;SDS011;20477;51.390;8.102;2023-08-31T01:59:01;14.80;;;9.32;;
34212;SDS011;20477;51.390;8.102;2023-08-31T02:01:32;13.15;;;7.85;;
34212;SDS011;20477;51.390;8.102;2023-08-31T02:04:00;19.65;;;8.13;;
34212;SDS011;20477;51.390;8.102;2023-08-31T02:06:29;20.55;;;10.75;;
34212;SDS011;20477;51.390;8.102;2023-08-31T02:08:57;16.60;;;9.75;;
34212;SDS011;20477;51.390;8.102;2023-08-31T02:11:27;14.85;;;7.50;;
34212;SDS011;20477;51.390;8.102;2023-08-31T02:13:55;14.68;;;7.72;;
34212;SDS011;20477;51.390;8.102;2023-08-31T02:16:23;11.38;;;7.05;;
34212;SDS011;20477;51.390;8.102;2023-08-31T02:18:52;11.55;;;5.95;;
34212;SDS011;20477;51.390;8.102;2023-08-31T02:21:20;18.48;;;6.15;;
34212;SDS011;20477;51.390;8.102;2023-08-31T02:23:49;14.20;;;6.22;;
34212;SDS011;20477;51.390;8.102;2023-08-31T02:26:17;16.27;;;6.50;;
34212;SDS011;20477;51.390;8.102;2023-08-31T02:28:48;11.60;;;6.30;;
34212;SDS011;20477;51.390;8.102;2023-08-31T02:31:16;17.08;;;6.80;;
34212;SDS011;20477;51.390;8.102;2023-08-31T02:33:46;13.10;;;6.30;;
34212;SDS011;20477;51.390;8.102;2023-08-31T02:36:15;17.75;;;5.93;;
34212;SDS011;20477;51.390;8.102;2023-08-31T02:38:43;10.85;;;5.90;;
34212;SDS011;20477;51.390;8.102;2023-08-31T02:41:12;13.98;;;6.15;;
34212;SDS011;20477;51.390;8.102;2023-08-31T02:43:41;16.65;;;7.03;;
34212;SDS011;20477;51.390;8.102;2023-08-31T02:46:11;20.08;;;7.75;;
34212;SDS011;20477;51.390;8.102;2023-08-31T02:48:39;15.68;;;9.30;;
34212;SDS011;20477;51.390;8.102;2023-08-31T02:51:08;16.85;;;8.75;;
34212;SDS011;20477;51.390;8.102;2023-08-31T02:53:36;22.48;;;11.80;;
34212;SDS011;20477;51.390;8.102;2023-08-31T02:56:04;20.17;;;11.45;;
34212;SDS011;20477;51.390;8.102;2023-08-31T02:58:33;23.55;;;12.07;;
34212;SDS011;20477;51.390;8.102;2023-08-31T03:01:08;19.67;;;12.15;;
34212;SDS011;20477;51.390;8.102;2023-08-31T03:03:40;19.42;;;10.65;;
34212;SDS011;20477;51.390;8.102;2023-08-31T03:06:11;16.77;;;10.35;;
34212;SDS011;20477;51.390;8.102;2023-08-31T03:08:41;21.98;;;12.23;;
34212;SDS011;20477;51.390;8.102;2023-08-31T03:11:10;20.27;;;13.02;;
34212;SDS011;20477;51.390;8.102;2023-08-31T03:13:40;24.25;;;11.30;;
34212;SDS011;20477;51.390;8.102;2023-08-31T03:16:10;18.77;;;10.75;;
34212;SDS011;20477;51.390;8.102;2023-08-31T03:18:39;21.30;;;11.13;;
34212;SDS011;20477;51.390;8.102;2023-08-31T03:21:07;22.25;;;11.40;;
34212;SDS011;20477;51.390;8.102;2023-08-31T03:23:35;20.80;;;12.27;;
34212;SDS011;20477;51.390;8.102;2023-08-31T03:26:07;20.90;;;14.25;;
34212;SDS011;20477;51.390;8.102;2023-08-31T03:28:35;28.40;;;14.98;;
34212;SDS011;20477;51.390;8.102;2023-08-31T03:31:05;22.05;;;13.18;;
34212;SDS011;20477;51.390;8.102;2023-08-31T03:33:35;19.88;;;12.80;;
34212;SDS011;20477;51.390;8.102;2023-08-31T03:36:03;23.25;;;14.57;;
34212;SDS011;20477;51.390;8.102;2023-08-31T03:38:32;24.85;;;14.25;;
34212;SDS011;20477;51.390;8.102;2023-08-31T03:41:04;21.85;;;14.40;;
34212;SDS011;20477;51.390;8.102;2023-08-31T03:43:32;21.73;;;14.48;;
34212;SDS011;20477;51.390;8.102;2023-08-31T03:46:01;23.38;;;14.13;;
34212;SDS011;20477;51.390;8.102;2023-08-31T03:48:29;23.65;;;14.35;;
34212;SDS011;20477;51.390;8.102;2023-08-31T03:51:00;30.60;;;15.48;;
34212;SDS011;20477;51.390;8.102;2023-08-31T03:53:29;23.63;;;15.27;;
34212;SDS011;20477;51.390;8.102;2023-08-31T03:55:57;27.25;;;14.93;;
34212;SDS011;20477;51.390;8.102;2023-08-31T03:58:26;23.88;;;14.15;;
34212;SDS011;20477;51.390;8.102;2023-08-31T04:00:54;16.02;;;13.35;;
34212;SDS011;20477;51.390;8.102;2023-08-31T04:03:22;20.77;;;13.73;;
34212;SDS011;20477;51.390;8.102;2023-08-31T04:05:53;19.25;;;14.13;;
34212;SDS011;20477;51.390;8.102;2023-08-31T04:08:23;18.45;;;13.45;;
34212;SDS011;20477;51.390;8.102;2023-08-31T04:10:52;23.15;;;13.13;;
34212;SDS011;20477;51.390;8.102;2023-08-31T04:13:20;17.45;;;11.45;;
34212;SDS011;20477;51.390;8.102;2023-08-31T04:15:49;19.23;;;11.07;;
34212;SDS011;20477;51.390;8.102;2023-08-31T04:18:17;15.48;;;10.73;;
34212;SDS011;20477;51.390;8.102;2023-08-31T04:20:48;20.90;;;10.70;;
34212;SDS011;20477;51.390;8.102;2023-08-31T04:23:18;21.77;;;10.95;;
34212;SDS011;20477;51.390;8.102;2023-08-31T04:25:48;16.05;;;10.65;;
34212;SDS011;20477;51.390;8.102;2023-08-31T04:28:19;18.75;;;10.85;;
34212;SDS011;20477;51.390;8.102;2023-08-31T04:30:48;15.30;;;10.55;;
34212;SDS011;20477;51.390;8.102;2023-08-31T04:33:17;18.80;;;9.93;;
34212;SDS011;20477;51.390;8.102;2023-08-31T04:35:45;12.70;;;9.48;;
34212;SDS011;20477;51.390;8.102;2023-08-31T04:38:14;15.02;;;9.60;;
34212;SDS011;20477;51.390;8.102;2023-08-31T04:40:42;21.50;;;11.25;;
34212;SDS011;20477;51.390;8.102;2023-08-31T04:43:12;14.55;;;9.43;;
34212;SDS011;20477;51.390;8.102;2023-08-31T04:45:40;12.98;;;9.00;;
34212;SDS011;20477;51.390;8.102;2023-08-31T04:48:09;15.70;;;9.10;;
34212;SDS011;20477;51.390;8.102;2023-08-31T04:50:37;13.20;;;8.57;;
34212;SDS011;20477;51.390;8.102;2023-08-31T04:53:06;12.85;;;8.20;;
34212;SDS011;20477;51.390;8.102;2023-08-31T04:55:34;14.40;;;8.48;;
34212;SDS011;20477;51.390;8.102;2023-08-31T04:58:04;14.25;;;8.95;;
34212;SDS011;20477;51.390;8.102;2023-08-31T05:00:33;15.75;;;8.90;;
34212;SDS011;20477;51.390;8.102;2023-08-31T05:03:02;13.02;;;8.35;;
34212;SDS011;20477;51.390;8.102;2023-08-31T05:05:31;10.73;;;8.32;;
34212;SDS011;20477;51.390;8.102;2023-08-31T05:08:01;13.75;;;8.10;;
34212;SDS011;20477;51.390;8.102;2023-08-31T05:10:31;12.07;;;8.50;;
34212;SDS011;20477;51.390;8.102;2023-08-31T05:13:00;13.93;;;8.48;;
34212;SDS011;20477;51.390;8.102;2023-08-31T05:15:30;14.60;;;8.77;;
34212;SDS011;20477;51.390;8.102;2023-08-31T05:18:02;15.80;;;8.35;;
34212;SDS011;20477;51.390;8.102;2023-08-31T05:20:31;12.25;;;8.00;;
34212;SDS011;20477;51.390;8.102;2023-08-31T05:22:59;9.40;;;7.97;;
34212;SDS011;20477;51.390;8.102;2023-08-31T05:25:28;14.25;;;7.93;;
34212;SDS011;20477;51.390;8.102;2023-08-31T05:27:56;11.00;;;8.15;;
34212;SDS011;20477;51.390;8.102;2023-08-31T05:30:25;15.40;;;8.68;;
34212;SDS011;20477;51.390;8.102;2023-08-31T05:32:54;14.77;;;8.05;;
34212;SDS011;20477;51.390;8.102;2023-08-31T05:35:24;12.32;;;8.82;;
34212;SDS011;20477;51.390;8.102;2023-08-31T05:37:52;15.27;;;8.77;;
34212;SDS011;20477;51.390;8.102;2023-08-31T05:40:21;17.15;;;7.82;;
34212;SDS011;20477;51.390;8.102;2023-08-31T05:42:49;13.63;;;7.28;;
34212;SDS011;20477;51.390;8.102;2023-08-31T05:45:17;13.48;;;7.32;;
34212;SDS011;20477;51.390;8.102;2023-08-31T05:47:46;8.45;;;7.13;;
34212;SDS011;20477;51.390;8.102;2023-08-31T05:50:15;12.50;;;8.20;;
34212;SDS011;20477;51.390;8.102;2023-08-31T05:52:45;13.88;;;7.28;;
34212;SDS011;20477;51.390;8.102;2023-08-31T05:55:13;14.07;;;6.97;;
34212;SDS011;20477;51.390;8.102;2023-08-31T05:57:42;10.70;;;7.10;;
34212;SDS011;20477;51.390;8.102;2023-08-31T06:00:11;11.73;;;5.93;;
34212;SDS011;20477;51.390;8.102;2023-08-31T06:02:40;10.48;;;7.07;;
34212;SDS011;20477;51.390;8.102;2023-08-31T06:05:09;13.25;;;6.68;;
34212;SDS011;20477;51.390;8.102;2023-08-31T06:07:39;8.35;;;6.00;;
34212;SDS011;20477;51.390;8.102;2023-08-31T06:10:09;9.38;;;6.35;;
34212;SDS011;20477;51.390;8.102;2023-08-31T06:12:38;11.30;;;6.75;;
34212;SDS011;20477;51.390;8.102;2023-08-31T06:15:07;13.18;;;6.72;;
34212;SDS011;20477;51.390;8.102;2023-08-31T06:17:36;10.50;;;6.97;;
34212;SDS011;20477;51.390;8.102;2023-08-31T06:20:05;12.00;;;6.97;;
34212;SDS011;20477;51.390;8.102;2023-08-31T06:22:35;11.63;;;6.97;;
34212;SDS011;20477;51.390;8.102;2023-08-31T06:25:04;20.10;;;7.28;;
34212;SDS011;20477;51.390;8.102;2023-08-31T06:27:35;13.88;;;7.70;;
34212;SDS011;20477;51.390;8.102;2023-08-31T06:30:04;12.05;;;6.78;;
34212;SDS011;20477;51.390;8.102;2023-08-31T06:32:35;16.42;;;7.97;;
34212;SDS011;20477;51.390;8.102;2023-08-31T06:35:03;9.52;;;7.50;;
34212;SDS011;20477;51.390;8.102;2023-08-31T06:37:32;18.90;;;7.82;;
34212;SDS011;20477;51.390;8.102;2023-08-31T06:40:01;11.32;;;7.22;;
34212;SDS011;20477;51.390;8.102;2023-08-31T06:42:29;11.23;;;7.18;;
34212;SDS011;20477;51.390;8.102;2023-08-31T06:44:59;13.75;;;6.90;;
34212;SDS011;20477;51.390;8.102;2023-08-31T06:47:28;15.40;;;6.78;;
34212;SDS011;20477;51.390;8.102;2023-08-31T06:49:57;9.85;;;6.72;;
34212;SDS011;20477;51.390;8.102;2023-08-31T06:52:25;12.82;;;6.40;;
34212;SDS011;20477;51.390;8.102;2023-08-31T06:54:57;10.17;;;7.13;;
34212;SDS011;20477;51.390;8.102;2023-08-31T06:57:26;12.32;;;7.15;;
34212;SDS011;20477;51.390;8.102;2023-08-31T06:59:55;12.13;;;7.60;;
34212;SDS011;20477;51.390;8.102;2023-08-31T07:02:25;10.70;;;6.53;;
34212;SDS011;20477;51.390;8.102;2023-08-31T07:04:54;10.45;;;6.57;;
34212;SDS011;20477;51.390;8.102;2023-08-31T07:07:23;8.65;;;5.15;;
34212;SDS011;20477;51.390;8.102;2023-08-31T07:09:51;10.77;;;5.75;;
34212;SDS011;20477;51.390;8.102;2023-08-31T07:12:21;12.07;;;5.80;;
34212;SDS011;20477;51.390;8.102;2023-08-31T07:14:49;14.52;;;5.97;;
34212;SDS011;20477;51.390;8.102;2023-08-31T07:17:17;10.88;;;5.50;;
34212;SDS011;20477;51.390;8.102;2023-08-31T07:19:48;8.90;;;5.13;;
34212;SDS011;20477;51.390;8.102;2023-08-31T07:22:17;12.95;;;4.72;;
34212;SDS011;20477;51.390;8.102;2023-08-31T07:24:45;8.68;;;4.72;;
34212;SDS011;20477;51.390;8.102;2023-08-31T07:27:14;9.70;;;4.90;;
34212;SDS011;20477;51.390;8.102;2023-08-31T07:29:42;8.60;;;4.13;;
34212;SDS011;20477;51.390;8.102;2023-08-31T07:32:10;11.20;;;4.63;;
34212;SDS011;20477;51.390;8.102;2023-08-31T07:34:39;8.02;;;4.50;;
34212;SDS011;20477;51.390;8.102;2023-08-31T07:37:09;8.70;;;4.10;;
34212;SDS011;20477;51.390;8.102;2023-08-31T07:39:37;7.18;;;4.45;;
34212;SDS011;20477;51.390;8.102;2023-08-31T07:42:06;8.18;;;4.03;;
34212;SDS011;20477;51.390;8.102;2023-08-31T07:44:34;6.93;;;4.10;;
34212;SDS011;20477;51.390;8.102;2023-08-31T07:47:03;8.02;;;4.03;;
34212;SDS011;20477;51.390;8.102;2023-08-31T07:49:32;9.15;;;4.15;;
34212;SDS011;20477;51.390;8.102;2023-08-31T07:52:00;7.05;;;3.78;;
34212;SDS011;20477;51.390;8.102;2023-08-31T07:54:31;6.43;;;3.70;;
34212;SDS011;20477;51.390;8.102;2023-08-31T07:56:59;5.38;;;3.85;;
34212;SDS011;20477;51.390;8.102;2023-08-31T07:59:28;6.38;;;3.53;;
34212;SDS011;20477;51.390;8.102;2023-08-31T08:01:56;7.45;;;3.70;;
34212;SDS011;20477;51.390;8.102;2023-08-31T08:04:25;8.68;;;3.80;;
34212;SDS011;20477;51.390;8.102;2023-08-31T08:06:55;11.07;;;3.83;;
34212;SDS011;20477;51.390;8.102;2023-08-31T08:09:23;7.60;;;3.53;;
34212;SDS011;20477;51.390;8.102;2023-08-31T08:11:53;10.15;;;3.70;;
34212;SDS011;20477;51.390;8.102;2023-08-31T08:14:22;10.93;;;3.53;;
34212;SDS011;20477;51.390;8.102;2023-08-31T08:16:50;5.15;;;3.17;;
34212;SDS011;20477;51.390;8.102;2023-08-31T08:19:22;6.28;;;2.85;;
34212;SDS011;20477;51.390;8.102;2023-08-31T08:21:51;8.20;;;3.13;;
34212;SDS011;20477;51.390;8.102;2023-08-31T08:24:20;4.97;;;3.20;;
34212;SDS011;20477;51.390;8.102;2023-08-31T08:26:48;6.15;;;2.90;;
34212;SDS011;20477;51.390;8.102;2023-08-31T08:29:18;4.68;;;2.50;;
34212;SDS011;20477;51.390;8.102;2023-08-31T08:31:47;5.35;;;2.72;;
34212;SDS011;20477;51.390;8.102;2023-08-31T08:34:15;6.10;;;3.05;;
34212;SDS011;20477;51.390;8.102;2023-08-31T08:36:44;4.72;;;2.70;;
34212;SDS011;20477;51.390;8.102;2023-08-31T08:39:12;4.65;;;2.67;;
34212;SDS011;20477;51.390;8.102;2023-08-31T08:41:41;6.78;;;2.75;;
34212;SDS011;20477;51.390;8.102;2023-08-31T08:44:09;3.97;;;2.50;;
34212;SDS011;20477;51.390;8.102;2023-08-31T08:46:41;4.45;;;2.83;;
34212;SDS011;20477;51.390;8.102;2023-08-31T08:49:11;4.72;;;2.47;;
34212;SDS011;20477;51.390;8.102;2023-08-31T08:51:41;4.00;;;2.35;;
34212;SDS011;20477;51.390;8.102;2023-08-31T08:54:09;7.32;;;2.88;;
34212;SDS011;20477;51.390;8.102;2023-08-31T08:56:38;3.58;;;1.95;;
34212;SDS011;20477;51.390;8.102;2023-08-31T08:59:06;6.20;;;3.00;;
34212;SDS011;20477;51.390;8.102;2023-08-31T09:01:36;5.57;;;2.20;;
34212;SDS011;20477;51.390;8.102;2023-08-31T09:04:06;6.40;;;2.13;;
34212;SDS011;20477;51.390;8.102;2023-08-31T09:06:36;4.97;;;2.15;;
34212;SDS011;20477;51.390;8.102;2023-08-31T09:09:07;4.28;;;1.80;;
34212;SDS011;20477;51.390;8.102;2023-08-31T09:11:37;4.60;;;1.92;;
34212;SDS011;20477;51.390;8.102;2023-08-31T09:14:14;2.83;;;1.67;;
34212;SDS011;20477;51.390;8.102;2023-08-31T09:16:44;6.90;;;1.92;;
34212;SDS011;20477;51.390;8.102;2023-08-31T09:19:19;3.35;;;1.65;;
34212;SDS011;20477;51.390;8.102;2023-08-31T09:21:49;7.22;;;1.67;;
34212;SDS011;20477;51.390;8.102;2023-08-31T09:24:19;4.07;;;1.30;;
34212;SDS011;20477;51.390;8.102;2023-08-31T09:26:52;5.78;;;1.58;;
34212;SDS011;20477;51.390;8.102;2023-08-31T09:29:23;2.90;;;1.38;;
34212;SDS011;20477;51.390;8.102;2023-08-31T09:31:52;3.85;;;1.42;;
34212;SDS011;20477;51.390;8.102;2023-08-31T09:34:22;4.85;;;1.25;;
34212;SDS011;20477;51.390;8.102;2023-08-31T09:37:03;6.93;;;1.42;;
34212;SDS011;20477;51.390;8.102;2023-08-31T09:39:37;4.00;;;1.42;;
34212;SDS011;20477;51.390;8.102;2023-08-31T09:42:07;3.42;;;1.40;;
34212;SDS011;20477;51.390;8.102;2023-08-31T09:44:39;2.65;;;1.42;;
34212;SDS011;20477;51.390;8.102;2023-08-31T09:47:10;6.63;;;1.92;;
34212;SDS011;20477;51.390;8.102;2023-08-31T09:49:42;5.78;;;1.67;;
34212;SDS011;20477;51.390;8.102;2023-08-31T09:52:12;5.13;;;1.58;;
34212;SDS011;20477;51.390;8.102;2023-08-31T09:54:42;5.05;;;1.38;;
34212;SDS011;20477;51.390;8.102;2023-08-31T09:57:11;5.63;;;1.20;;
34212;SDS011;20477;51.390;8.102;2023-08-31T09:59:42;6.00;;;1.60;;
34212;SDS011;20477;51.390;8.102;2023-08-31T10:02:11;2.97;;;1.00;;
34212;SDS011;20477;51.390;8.102;2023-08-31T10:04:43;2.65;;;1.20;;
34212;SDS011;20477;51.390;8.102;2023-08-31T10:07:14;2.53;;;1.05;;
34212;SDS011;20477;51.390;8.102;2023-08-31T10:09:43;3.00;;;1.30;;
34212;SDS011;20477;51.390;8.102;2023-08-31T10:12:12;3.38;;;1.40;;
34212;SDS011;20477;51.390;8.102;2023-08-31T10:14:41;8.77;;;1.85;;
34212;SDS011;20477;51.390;8.102;2023-08-31T10:17:12;4.40;;;1.50;;
34212;SDS011;20477;51.390;8.102;2023-08-31T10:19:41;10.80;;;1.65;;
34212;SDS011;20477;51.390;8.102;2023-08-31T10:22:11;4.57;;;1.30;;
34212;SDS011;20477;51.390;8.102;2023-08-31T10:24:58;4.13;;;1.73;;
34212;SDS011;20477;51.390;8.102;2023-08-31T10:27:35;7.20;;;1.90;;
34212;SDS011;20477;51.390;8.102;2023-08-31T10:30:12;6.15;;;1.42;;
34212;SDS011;20477;51.390;8.102;2023-08-31T10:35:52;3.05;;;1.40;;
34212;SDS011;20477;51.390;8.102;2023-08-31T10:38:25;5.07;;;1.20;;
34212;SDS011;20477;51.390;8.102;2023-08-31T10:41:00;3.80;;;1.00;;
34212;SDS011;20477;51.390;8.102;2023-08-31T10:43:43;2.03;;;0.80;;
34212;SDS011;20477;51.390;8.102;2023-08-31T10:49:12;3.30;;;1.33;;
34212;SDS011;20477;51.390;8.102;2023-08-31T10:51:43;3.58;;;1.08;;
34212;SDS011;20477;51.390;8.102;2023-08-31T10:54:20;5.88;;;1.30;;
34212;SDS011;20477;51.390;8.102;2023-08-31T10:56:51;4.82;;;1.52;;
34212;SDS011;20477;51.390;8.102;2023-08-31T10:59:22;4.72;;;1.70;;
34212;SDS011;20477;51.390;8.102;2023-08-31T11:01:56;7.53;;;1.60;;
34212;SDS011;20477;51.390;8.102;2023-08-31T11:04:27;5.65;;;1.63;;
34212;SDS011;20477;51.390;8.102;2023-08-31T11:07:17;2.67;;;1.17;;
34212;SDS011;20477;51.390;8.102;2023-08-31T11:09:47;4.45;;;1.63;;
34212;SDS011;20477;51.390;8.102;2023-08-31T11:12:15;5.90;;;1.25;;
34212;SDS011;20477;51.390;8.102;2023-08-31T11:14:45;9.57;;;1.30;;
34212;SDS011;20477;51.390;8.102;2023-08-31T11:17:16;5.35;;;1.63;;
34212;SDS011;20477;51.390;8.102;2023-08-31T11:19:44;4.40;;;1.30;;
34212;SDS011;20477;51.390;8.102;2023-08-31T11:22:13;3.53;;;1.45;;
34212;SDS011;20477;51.390;8.102;2023-08-31T11:24:43;3.72;;;1.42;;
34212;SDS011;20477;51.390;8.102;2023-08-31T11:27:11;7.75;;;1.80;;
34212;SDS011;20477;51.390;8.102;2023-08-31T11:29:42;6.68;;;1.75;;
34212;SDS011;20477;51.390;8.102;2023-08-31T11:32:11;4.03;;;1.48;;
34212;SDS011;20477;51.390;8.102;2023-08-31T11:34:40;6.10;;;1.80;;
34212;SDS011;20477;51.390;8.102;2023-08-31T11:37:09;7.43;;;1.20;;
34212;SDS011;20477;51.390;8.102;2023-08-31T11:39:43;5.47;;;1.80;;
34212;SDS011;20477;51.390;8.102;2023-08-31T11:42:19;5.47;;;1.30;;
34212;SDS011;20477;51.390;8.102;2023-08-31T11:44:49;3.15;;;1.20;;
34212;SDS011;20477;51.390;8.102;2023-08-31T11:47:20;3.45;;;1.13;;
34212;SDS011;20477;51.390;8.102;2023-08-31T11:49:49;8.48;;;1.83;;
34212;SDS011;20477;51.390;8.102;2023-08-31T11:52:18;4.07;;;1.48;;
34212;SDS011;20477;51.390;8.102;2023-08-31T11:54:49;6.68;;;1.10;;
34212;SDS011;20477;51.390;8.102;2023-08-31T11:57:25;2.92;;;1.58;;
34212;SDS011;20477;51.390;8.102;2023-08-31T11:59:55;4.82;;;1.48;;
34212;SDS011;20477;51.390;8.102;2023-08-31T12:02:23;3.47;;;1.42;;
34212;SDS011;20477;51.390;8.102;2023-08-31T12:04:51;2.25;;;1.15;;
34212;SDS011;20477;51.390;8.102;2023-08-31T12:07:23;6.97;;;1.83;;
34212;SDS011;20477;51.390;8.102;2023-08-31T12:09:53;1.80;;;1.10;;
34212;SDS011;20477;51.390;8.102;2023-08-31T12:12:29;2.30;;;1.65;;
34212;SDS011;20477;51.390;8.102;2023-08-31T12:14:59;6.30;;;2.00;;
34212;SDS011;20477;51.390;8.102;2023-08-31T12:17:30;3.33;;;1.52;;
34212;SDS011;20477;51.390;8.102;2023-08-31T12:20:02;5.30;;;1.52;;
34212;SDS011;20477;51.390;8.102;2023-08-31T12:22:32;3.92;;;1.48;;
34212;SDS011;20477;51.390;8.102;2023-08-31T12:25:03;5.57;;;1.52;;
34212;SDS011;20477;51.390;8.102;2023-08-31T12:27:32;6.03;;;1.60;;
34212;SDS011;20477;51.390;8.102;2023-08-31T12:30:00;3.25;;;1.40;;
34212;SDS011;20477;51.390;8.102;2023-08-31T12:32:30;4.63;;;1.90;;
34212;SDS011;20477;51.390;8.102;2023-08-31T12:34:58;3.92;;;1.58;;
34212;SDS011;20477;51.390;8.102;2023-08-31T12:37:27;3.20;;;1.38;;
34212;SDS011;20477;51.390;8.102;2023-08-31T12:39:56;4.32;;;1.67;;
34212;SDS011;20477;51.390;8.102;2023-08-31T12:42:26;4.35;;;1.40;;
34212;SDS011;20477;51.390;8.102;2023-08-31T12:44:54;3.30;;;1.42;;
34212;SDS011;20477;51.390;8.102;2023-08-31T12:47:23;5.88;;;2.00;;
34212;SDS011;20477;51.390;8.102;2023-08-31T12:49:51;7.22;;;2.17;;
34212;SDS011;20477;51.390;8.102;2023-08-31T12:52:19;8.10;;;1.75;;
34212;SDS011;20477;51.390;8.102;2023-08-31T12:54:48;8.70;;;1.33;;
34212;SDS011;20477;51.390;8.102;2023-08-31T12:57:16;6.65;;;1.88;;
34212;SDS011;20477;51.390;8.102;2023-08-31T12:59:46;6.43;;;1.75;;
34212;SDS011;20477;51.390;8.102;2023-08-31T13:02:15;11.43;;;2.55;;
34212;SDS011;20477;51.390;8.102;2023-08-31T13:04:43;3.28;;;1.45;;
34212;SDS011;20477;51.390;8.102;2023-08-31T13:07:11;4.78;;;1.30;;
34212;SDS011;20477;51.390;8.102;2023-08-31T13:09:40;6.60;;;1.75;;
34212;SDS011;20477;51.390;8.102;2023-08-31T13:12:09;4.38;;;1.35;;
34212;SDS011;20477;51.390;8.102;2023-08-31T13:14:38;6.10;;;2.08;;
34212;SDS011;20477;51.390;8.102;2023-08-31T13:17:07;5.65;;;1.75;;
34212;SDS011;20477;51.390;8.102;2023-08-31T13:19:36;3.53;;;1.60;;
34212;SDS011;20477;51.390;8.102;2023-08-31T13:22:04;7.55;;;2.00;;
34212;SDS011;20477;51.390;8.102;2023-08-31T13:24:32;6.60;;;2.15;;
34212;SDS011;20477;51.390;8.102;2023-08-31T13:27:01;6.30;;;2.17;;
34212;SDS011;20477;51.390;8.102;2023-08-31T13:29:30;5.47;;;1.80;;
34212;SDS011;20477;51.390;8.102;2023-08-31T13:31:58;7.25;;;2.20;;
34212;SDS011;20477;51.390;8.102;2023-08-31T13:34:28;6.95;;;2.08;;
34212;SDS011;20477;51.390;8.102;2023-08-31T13:36:57;5.47;;;1.58;;
34212;SDS011;20477;51.390;8.102;2023-08-31T13:39:28;10.20;;;2.28;;
34212;SDS011;20477;51.390;8.102;2023-08-31T13:41:58;8.88;;;1.70;;
34212;SDS011;20477;51.390;8.102;2023-08-31T13:44:28;9.13;;;2.00;;
34212;SDS011;20477;51.390;8.102;2023-08-31T13:46:56;4.20;;;1.65;;
34212;SDS011;20477;51.390;8.102;2023-08-31T13:49:25;5.90;;;1.88;;
34212;SDS011;20477;51.390;8.102;2023-08-31T13:51:55;9.13;;;2.15;;
34212;SDS011;20477;51.390;8.102;2023-08-31T13:54:23;6.38;;;1.35;;
34212;SDS011;20477;51.390;8.102;2023-08-31T13:56:52;5.80;;;1.63;;
34212;SDS011;20477;51.390;8.102;2023-08-31T13:59:21;3.58;;;1.55;;
34212;SDS011;20477;51.390;8.102;2023-08-31T14:01:49;4.20;;;1.40;;
34212;SDS011;20477;51.390;8.102;2023-08-31T14:04:18;6.90;;;1.75;;
34212;SDS011;20477;51.390;8.102;2023-08-31T14:06:47;3.72;;;1.48;;
34212;SDS011;20477;51.390;8.102;2023-08-31T14:09:16;2.90;;;1.30;;
34212;SDS011;20477;51.390;8.102;2023-08-31T14:11:45;5.63;;;1.42;;
34212;SDS011;20477;51.390;8.102;2023-08-31T14:14:13;2.78;;;1.40;;
34212;SDS011;20477;51.390;8.102;2023-08-31T14:16:42;4.35;;;1.95;;
34212;SDS011;20477;51.390;8.102;2023-08-31T14:19:11;4.95;;;1.50;;
34212;SDS011;20477;51.390;8.102;2023-08-31T14:21:39;5.78;;;1.45;;
34212;SDS011;20477;51.390;8.102;2023-08-31T14:24:09;4.32;;;1.38;;
34212;SDS011;20477;51.390;8.102;2023-08-31T14:26:38;2.90;;;1.48;;
34212;SDS011;20477;51.390;8.102;2023-08-31T14:29:06;2.95;;;1.60;;
34212;SDS011;20477;51.390;8.102;2023-08-31T14:31:34;4.72;;;1.48;;
34212;SDS011;20477;51.390;8.102;2023-08-31T14:34:03;4.68;;;1.65;;
34212;SDS011;20477;51.390;8.102;2023-08-31T14:36:32;6.35;;;1.80;;
34212;SDS011;20477;51.390;8.102;2023-08-31T14:39:00;5.32;;;1.90;;
34212;SDS011;20477;51.390;8.102;2023-08-31T14:41:31;5.82;;;1.58;;
34212;SDS011;20477;51.390;8.102;2023-08-31T14:43:59;6.25;;;2.08;;
34212;SDS011;20477;51.390;8.102;2023-08-31T14:46:28;3.95;;;1.95;;
34212;SDS011;20477;51.390;8.102;2023-08-31T14:48:56;6.63;;;2.05;;
34212;SDS011;20477;51.390;8.102;2023-08-31T14:51:24;6.95;;;2.00;;
34212;SDS011;20477;51.390;8.102;2023-08-31T14:53:53;6.10;;;2.10;;
34212;SDS011;20477;51.390;8.102;2023-08-31T14:56:21;9.52;;;2.05;;
34212;SDS011;20477;51.390;8.102;2023-08-31T14:58:51;6.47;;;2.38;;